Time;durP1;ratioP1;P1;durP2;ratioP2;P2;SDS_P1;SDS_P2;PMS_P1;PMS_P2;Temp;Humidity;BMP_temperature;BMP_pressure;BME280_temperature;BME280_humidity;BME280_pressure;Samples;Min_cycle;Max_cycle;Signal;HPM_P1;HPM_P2
2022/09/22 00:01:36;;;;;;;2.77;2.57;;;23.80;64.60;;;;;;5064294;28;20552;-82
2022/09/22 00:04:07;;;;;;;1.93;1.83;;;23.80;64.60;;;;;;5065732;28;20447;-82
2022/09/22 00:06:38;;;;;;;2.03;1.93;;;23.80;64.60;;;;;;5072075;28;20885;-82
2022/09/22 00:09:08;;;;;;;2.40;2.13;;;23.80;64.60;;;;;;5070998;28;20544;-80
2022/09/22 00:11:39;;;;;;;3.57;2.00;;;23.80;64.70;;;;;;5071503;28;20781;-81
2022/09/22 00:14:09;;;;;;;2.60;2.10;;;23.80;64.60;;;;;;5071404;28;20482;-82
2022/09/22 00:16:41;;;;;;;2.33;2.13;;;23.70;64.60;;;;;;5063081;28;20489;-81
2022/09/22 00:19:14;;;;;;;2.33;2.23;;;23.70;64.60;;;;;;5065442;28;20477;-80
2022/09/22 00:21:43;;;;;;;2.03;1.93;;;23.70;64.60;;;;;;5071713;28;20477;-82
2022/09/22 00:24:12;;;;;;;2.27;2.17;;;23.70;64.60;;;;;;5059583;28;20446;-82
2022/09/22 00:26:40;;;;;;;2.00;1.60;;;23.70;64.60;;;;;;5052795;28;20481;-81
2022/09/22 00:29:09;;;;;;;3.30;2.40;;;23.70;64.60;;;;;;5071843;28;20829;-81
2022/09/22 00:31:41;;;;;;;2.13;2.00;;;23.70;64.60;;;;;;5071361;28;20505;-81
2022/09/22 00:34:15;;;;;;;1.80;1.70;;;23.70;64.60;;;;;;5071201;28;20456;-82
2022/09/22 00:36:43;;;;;;;1.73;1.63;;;23.70;64.60;;;;;;5065296;28;20439;-82
2022/09/22 00:39:13;;;;;;;2.23;1.83;;;23.70;64.60;;;;;;5052738;28;20467;-79
2022/09/22 00:41:44;;;;;;;2.20;1.97;;;23.70;64.60;;;;;;5051614;28;20449;-80
2022/09/22 00:44:35;;;;;;;2.07;1.87;;;23.60;64.60;;;;;;5051422;28;20534;-82
2022/09/22 00:47:15;;;;;;;2.23;2.03;;;23.60;64.70;;;;;;5059897;28;20445;-83
2022/09/22 00:49:49;;;;;;;2.13;2.03;;;23.60;64.70;;;;;;5071764;28;20565;-81
2022/09/22 00:52:22;;;;;;;2.00;1.87;;;23.60;64.70;;;;;;5074457;28;20529;-82
2022/09/22 00:54:53;;;;;;;2.03;1.83;;;23.60;64.70;;;;;;5070525;28;20493;-80
2022/09/22 00:57:25;;;;;;;2.13;2.03;;;23.50;64.70;;;;;;5074025;28;20438;-81
2022/09/22 00:59:54;;;;;;;2.90;2.07;;;23.50;64.70;;;;;;5070871;28;20574;-79
2022/09/22 01:02:24;;;;;;;2.27;2.17;;;23.50;64.70;;;;;;5069885;28;20449;-82
2022/09/22 01:04:53;;;;;;;2.20;2.10;;;23.50;64.70;;;;;;5073938;28;20450;-82
2022/09/22 01:07:26;;;;;;;2.03;1.93;;;23.50;64.70;;;;;;5071129;28;20543;-81
2022/09/22 01:09:55;;;;;;;1.83;1.73;;;23.50;64.70;;;;;;5054342;28;20459;-79
2022/09/22 01:12:24;;;;;;;2.10;1.90;;;23.50;64.70;;;;;;5054580;28;20504;-79
2022/09/22 01:15:24;;;;;;;1.93;1.73;;;23.50;64.60;;;;;;5055868;28;20502;-81
2022/09/22 01:18:06;;;;;;;2.53;2.17;;;23.50;64.60;;;;;;5058270;28;20573;-82
2022/09/22 01:21:04;;;;;;;2.20;2.10;;;23.50;64.60;;;;;;5074311;28;20546;-81
2022/09/22 01:24:13;;;;;;;4.30;2.67;;;23.50;64.60;;;;;;5064563;28;20516;-79
2022/09/22 01:27:02;;;;;;;1.90;1.80;;;23.50;64.60;;;;;;5070987;28;20470;-82
2022/09/22 01:30:05;;;;;;;2.00;1.90;;;23.40;64.60;;;;;;5070142;28;20474;-82
2022/09/22 01:32:42;;;;;;;2.03;1.93;;;23.40;64.60;;;;;;5067847;28;20603;-81
2022/09/22 01:35:19;;;;;;;1.87;1.73;;;23.40;64.60;;;;;;5064279;28;20530;-81
2022/09/22 01:37:56;;;;;;;1.47;1.37;;;23.40;64.60;;;;;;5058668;28;21047;-81
2022/09/22 01:40:31;;;;;;;2.40;2.20;;;23.40;64.60;;;;;;5070332;28;20913;-81
2022/09/22 01:43:05;;;;;;;1.60;1.50;;;23.40;64.50;;;;;;5074158;28;20453;-81
2022/09/22 01:45:35;;;;;;;2.00;1.90;;;23.40;64.50;;;;;;5074128;28;20465;-81
2022/09/22 01:48:09;;;;;;;1.80;1.70;;;23.40;64.50;;;;;;5050366;28;20511;-81
2022/09/22 01:50:43;;;;;;;1.60;1.50;;;23.40;64.50;;;;;;5074279;28;20480;-82
2022/09/22 01:53:14;;;;;;;2.00;1.90;;;23.40;64.50;;;;;;5073975;28;20533;-82
2022/09/22 01:55:47;;;;;;;2.50;2.30;;;23.40;64.50;;;;;;5070252;28;20549;-82
2022/09/22 01:58:18;;;;;;;2.60;2.30;;;23.30;64.50;;;;;;5069373;28;20472;-82
2022/09/22 02:00:52;;;;;;;1.90;1.80;;;23.30;64.50;;;;;;5072169;28;20481;-82
2022/09/22 02:03:26;;;;;;;2.27;2.07;;;23.30;64.50;;;;;;5073267;28;20561;-81
2022/09/22 02:05:56;;;;;;;1.77;1.67;;;23.30;64.50;;;;;;5073102;28;20533;-81
2022/09/22 02:08:30;;;;;;;3.13;2.37;;;23.30;64.50;;;;;;5063697;28;20474;-79
2022/09/22 02:11:06;;;;;;;2.80;1.80;;;23.30;64.50;;;;;;5073301;28;20865;-79
2022/09/22 02:13:35;;;;;;;1.90;1.80;;;23.30;64.50;;;;;;5070910;28;20487;-81
2022/09/22 02:16:05;;;;;;;1.43;1.33;;;23.30;64.50;;;;;;5072915;28;20505;-81
2022/09/22 02:18:39;;;;;;;1.63;1.53;;;23.30;64.50;;;;;;5073480;28;20544;-81
2022/09/22 02:21:08;;;;;;;1.67;1.57;;;23.30;64.50;;;;;;5073091;28;20478;-81
2022/09/22 02:23:36;;;;;;;2.20;2.03;;;23.30;64.50;;;;;;5066076;28;20506;-81
2022/09/22 02:26:06;;;;;;;1.90;1.77;;;23.30;64.50;;;;;;5061534;28;20450;-82
2022/09/22 02:28:37;;;;;;;2.00;1.83;;;23.30;64.60;;;;;;5073007;28;20929;-81
2022/09/22 02:31:09;;;;;;;1.67;1.57;;;23.30;64.60;;;;;;5072417;28;20512;-82
2022/09/22 02:33:50;;;;;;;1.83;1.73;;;23.30;64.60;;;;;;5061022;28;20477;-80
2022/09/22 02:36:38;;;;;;;1.73;1.63;;;23.30;64.60;;;;;;5056895;28;20445;-82
2022/09/22 02:39:09;;;;;;;2.30;2.10;;;23.30;64.60;;;;;;5051964;28;20561;-81
2022/09/22 02:41:47;;;;;;;1.90;1.80;;;23.20;64.60;;;;;;5053354;28;20550;-82
2022/09/22 02:44:21;;;;;;;1.80;1.70;;;23.20;64.60;;;;;;5052299;28;20525;-82
2022/09/22 02:46:56;;;;;;;2.10;2.00;;;23.20;64.60;;;;;;5060653;28;20501;-80
2022/09/22 02:49:27;;;;;;;1.77;1.67;;;23.20;64.60;;;;;;5053089;28;20529;-79
2022/09/22 02:51:56;;;;;;;2.00;1.90;;;23.20;64.60;;;;;;5063081;28;20489;-81
2022/09/22 02:54:25;;;;;;;2.23;2.00;;;23.20;64.60;;;;;;5066981;28;20470;-81
2022/09/22 02:56:54;;;;;;;1.67;1.57;;;23.20;64.60;;;;;;5053057;28;20538;-82
2022/09/22 02:59:22;;;;;;;1.83;1.73;;;23.20;64.40;;;;;;5060543;28;20931;-82
2022/09/22 03:01:51;;;;;;;2.37;1.70;;;23.20;64.40;;;;;;5063333;28;21007;-82
2022/09/22 03:04:19;;;;;;;1.90;1.80;;;23.20;64.40;;;;;;5069689;28;20457;-82
2022/09/22 03:06:49;;;;;;;1.60;1.50;;;23.10;64.40;;;;;;5059080;28;20550;-82
2022/09/22 03:09:17;;;;;;;1.73;1.63;;;23.10;64.40;;;;;;5064118;28;20476;-82
2022/09/22 03:11:45;;;;;;;2.00;1.87;;;23.10;64.40;;;;;;5071488;28;20466;-82
2022/09/22 03:14:13;;;;;;;1.83;1.73;;;23.10;64.40;;;;;;5071824;28;20952;-82
2022/09/22 03:16:42;;;;;;;1.63;1.53;;;23.10;64.40;;;;;;5056233;28;20550;-81
2022/09/22 03:19:10;;;;;;;2.00;1.90;;;23.10;64.40;;;;;;5068814;28;20565;-81
2022/09/22 03:21:38;;;;;;;2.00;1.50;;;23.10;64.40;;;;;;5064137;28;20485;-83
2022/09/22 03:24:08;;;;;;;1.90;1.70;;;23.10;64.40;;;;;;5053561;28;20963;-80
2022/09/22 03:26:36;;;;;;;1.50;1.40;;;23.10;64.40;;;;;;5052729;28;20435;-82
2022/09/22 03:29:05;;;;;;;2.27;2.17;;;23.10;64.40;;;;;;5071207;28;20454;-82
2022/09/22 03:31:33;;;;;;;2.10;2.00;;;23.10;64.40;;;;;;5072777;28;20466;-82
2022/09/22 03:34:01;;;;;;;1.60;1.50;;;23.10;64.40;;;;;;5053087;28;20557;-81
2022/09/22 03:36:29;;;;;;;1.77;1.50;;;23.10;64.40;;;;;;5052266;28;20530;-82
2022/09/22 03:38:58;;;;;;;1.73;1.63;;;23.10;64.40;;;;;;5063710;28;20496;-82
2022/09/22 03:41:28;;;;;;;1.57;1.40;;;23.10;64.40;;;;;;5072001;28;20441;-82
2022/09/22 03:43:57;;;;;;;1.63;1.53;;;23.10;64.60;;;;;;5071861;28;20461;-81
2022/09/22 03:46:25;;;;;;;1.93;1.73;;;23.10;64.60;;;;;;5058375;28;20466;-82
2022/09/22 03:48:54;;;;;;;2.07;1.87;;;23.10;64.60;;;;;;5071462;28;20454;-82
2022/09/22 03:51:22;;;;;;;1.70;1.60;;;23.10;64.60;;;;;;5071675;28;20540;-81
2022/09/22 03:53:50;;;;;;;1.70;1.60;;;23.10;64.70;;;;;;5067992;28;20497;-81
2022/09/22 03:56:18;;;;;;;1.73;1.63;;;23.10;64.70;;;;;;5061535;28;21011;-81
2022/09/22 03:58:48;;;;;;;1.90;1.80;;;23.10;64.60;;;;;;5055458;28;20541;-80
2022/09/22 04:01:16;;;;;;;1.97;1.87;;;23.00;64.60;;;;;;5068735;28;20591;-82
2022/09/22 04:03:45;;;;;;;1.60;1.50;;;23.00;64.60;;;;;;5068293;28;20519;-82
2022/09/22 04:06:13;;;;;;;1.77;1.67;;;23.00;64.60;;;;;;5070977;28;20458;-81
2022/09/22 04:08:42;;;;;;;1.90;1.80;;;23.00;64.60;;;;;;5070076;28;20498;-80
2022/09/22 04:11:10;;;;;;;1.67;1.57;;;23.00;64.50;;;;;;5068083;28;20527;-81
2022/09/22 04:13:38;;;;;;;1.50;1.40;;;23.00;64.50;;;;;;5069552;28;21022;-81
2022/09/22 04:16:14;;;;;;;1.60;1.50;;;23.00;64.60;;;;;;5067607;28;20829;-81
2022/09/22 04:18:43;;;;;;;1.53;1.43;;;23.00;64.60;;;;;;5070445;28;21228;-82
2022/09/22 04:21:11;;;;;;;1.50;1.50;;;23.00;64.60;;;;;;5070490;28;20564;-82
2022/09/22 04:23:39;;;;;;;1.70;1.60;;;23.00;64.60;;;;;;5072074;28;20467;-82
2022/09/22 04:26:07;;;;;;;2.30;1.70;;;23.00;64.60;;;;;;5074466;28;20476;-82
2022/09/22 04:28:35;;;;;;;1.77;1.67;;;23.00;64.60;;;;;;5074985;28;20442;-81
2022/09/22 04:31:04;;;;;;;2.10;2.00;;;23.00;64.60;;;;;;5074370;28;20468;-79
2022/09/22 04:33:33;;;;;;;1.87;1.50;;;23.00;64.60;;;;;;5073408;28;20511;-81
2022/09/22 04:36:02;;;;;;;1.60;1.50;;;23.00;64.50;;;;;;5062771;28;20453;-82
2022/09/22 04:38:30;;;;;;;1.53;1.43;;;23.00;64.50;;;;;;5065652;28;20552;-80
2022/09/22 04:41:00;;;;;;;1.83;1.73;;;23.00;64.60;;;;;;5067496;28;20983;-81
2022/09/22 04:43:28;;;;;;;1.40;1.40;;;23.00;64.60;;;;;;5072853;28;20839;-78
2022/09/22 04:45:56;;;;;;;2.10;2.00;;;23.00;64.50;;;;;;5068004;28;20445;-83
2022/09/22 04:48:25;;;;;;;1.30;1.30;;;23.00;64.50;;;;;;5066397;28;20788;-80
2022/09/22 04:50:54;;;;;;;1.77;1.67;;;23.00;64.50;;;;;;5070609;28;20849;-77
2022/09/22 04:53:22;;;;;;;1.90;1.80;;;23.00;64.50;;;;;;5073355;28;20529;-82
2022/09/22 04:55:51;;;;;;;1.83;1.73;;;23.00;64.40;;;;;;5071719;28;20908;-83
2022/09/22 04:58:19;;;;;;;1.70;1.60;;;23.00;64.50;;;;;;5069176;28;20484;-84
2022/09/22 05:00:47;;;;;;;1.63;1.53;;;23.00;64.60;;;;;;5068973;28;20519;-77
2022/09/22 05:03:15;;;;;;;1.57;1.47;;;23.00;64.60;;;;;;5069280;28;20492;-80
2022/09/22 05:05:49;;;;;;;1.60;1.50;;;23.00;64.40;;;;;;5073763;28;20453;-80
2022/09/22 05:08:18;;;;;;;1.67;1.57;;;23.00;64.30;;;;;;5074925;28;20452;-79
2022/09/22 05:10:47;;;;;;;1.63;1.53;;;23.00;64.30;;;;;;5074165;28;20995;-80
2022/09/22 05:13:15;;;;;;;1.70;1.50;;;23.00;64.40;;;;;;5074639;28;20583;-78
2022/09/22 05:15:43;;;;;;;1.50;1.40;;;23.00;64.60;;;;;;5067087;28;20576;-79
2022/09/22 05:18:11;;;;;;;4.40;1.60;;;23.00;64.80;;;;;;5072600;28;20560;-80
2022/09/22 05:20:39;;;;;;;3.43;1.93;;;23.00;64.80;;;;;;5066047;28;20512;-80
2022/09/22 05:23:08;;;;;;;1.90;1.80;;;23.00;64.70;;;;;;5067928;28;20579;-80
2022/09/22 05:25:38;;;;;;;1.90;1.63;;;23.00;64.70;;;;;;5069112;28;20480;-80
2022/09/22 05:28:06;;;;;;;2.50;2.20;;;22.90;64.70;;;;;;5071995;28;20462;-80
2022/09/22 05:30:34;;;;;;;1.77;1.67;;;22.90;64.70;;;;;;5073628;28;20877;-78
2022/09/22 05:33:02;;;;;;;3.00;1.83;;;22.90;64.70;;;;;;5074047;28;20541;-78
2022/09/22 05:35:30;;;;;;;3.13;2.40;;;22.90;64.50;;;;;;5073566;28;20871;-78
2022/09/22 05:38:04;;;;;;;3.30;1.80;;;22.90;64.50;;;;;;5071962;28;20916;-80
2022/09/22 05:40:32;;;;;;;1.83;1.73;;;22.90;64.50;;;;;;5067493;28;20568;-82
2022/09/22 05:43:02;;;;;;;2.90;2.00;;;22.90;64.50;;;;;;5070178;28;20465;-79
2022/09/22 05:45:30;;;;;;;3.77;2.20;;;22.90;64.50;;;;;;5069129;28;20507;-81
2022/09/22 05:47:58;;;;;;;5.93;2.97;;;22.90;64.70;;;;;;5073234;28;20471;-82
2022/09/22 05:50:26;;;;;;;4.07;2.20;;;22.90;64.80;;;;;;5072632;28;20837;-82
2022/09/22 05:53:03;;;;;;;2.03;1.80;;;22.90;64.70;;;;;;5066638;28;20544;-82
2022/09/22 05:55:32;;;;;;;3.43;2.20;;;22.90;64.70;;;;;;5068044;28;20444;-80
2022/09/22 05:58:02;;;;;;;5.17;2.47;;;22.90;64.50;;;;;;5071530;28;20486;-82
2022/09/22 06:00:30;;;;;;;2.80;2.20;;;22.90;64.60;;;;;;5066696;28;20873;-80
2022/09/22 06:02:59;;;;;;;6.37;2.30;;;22.90;64.50;;;;;;5069640;28;20449;-81
2022/09/22 06:05:27;;;;;;;6.03;2.53;;;22.90;64.50;;;;;;5070526;28;20507;-83
2022/09/22 06:08:02;;;;;;;5.70;2.13;;;22.90;64.50;;;;;;5070785;28;20506;-83
2022/09/22 06:10:31;;;;;;;4.60;2.60;;;22.90;64.50;;;;;;5069830;28;20476;-81
2022/09/22 06:13:02;;;;;;;2.50;2.30;;;22.90;64.50;;;;;;5067540;28;20516;-82
2022/09/22 06:15:32;;;;;;;2.50;2.30;;;22.90;64.50;;;;;;5071469;28;20540;-82
2022/09/22 06:18:01;;;;;;;2.50;2.23;;;22.90;64.50;;;;;;5069965;28;20460;-81
2022/09/22 06:20:29;;;;;;;2.43;2.23;;;22.90;64.50;;;;;;5062898;28;20480;-81
2022/09/22 06:22:58;;;;;;;3.27;2.37;;;23.00;64.70;;;;;;5063324;28;20531;-80
2022/09/22 06:25:28;;;;;;;3.03;2.83;;;23.00;64.80;;;;;;5062926;28;20549;-84
2022/09/22 06:28:01;;;;;;;2.20;2.00;;;23.00;64.80;;;;;;5072977;28;20453;-78
2022/09/22 06:30:31;;;;;;;3.10;2.20;;;23.00;64.80;;;;;;5065880;28;20567;-78
2022/09/22 06:33:00;;;;;;;2.43;2.23;;;23.00;64.80;;;;;;5064096;28;20864;-79
2022/09/22 06:35:29;;;;;;;4.30;2.17;;;23.00;64.80;;;;;;5067446;28;21004;-78
2022/09/22 06:37:58;;;;;;;5.33;3.00;;;23.10;64.80;;;;;;5072087;28;20935;-81
2022/09/22 06:40:27;;;;;;;3.43;2.37;;;23.10;64.60;;;;;;5068043;28;20544;-80
2022/09/22 06:43:07;;;;;;;4.07;2.37;;;23.10;64.60;;;;;;5074162;28;20908;-78
2022/09/22 06:45:36;;;;;;;2.50;2.30;;;23.10;64.60;;;;;;5055325;28;20474;-80
2022/09/22 06:48:06;;;;;;;2.40;2.10;;;23.10;64.60;;;;;;5070014;28;20468;-80
2022/09/22 06:50:39;;;;;;;4.10;1.90;;;23.20;64.60;;;;;;5065498;28;20454;-84
2022/09/22 06:53:11;;;;;;;4.10;2.47;;;23.20;64.60;;;;;;5062465;28;20485;-84
2022/09/22 06:55:40;;;;;;;2.50;1.90;;;23.20;64.60;;;;;;5068594;28;20453;-80
2022/09/22 06:58:09;;;;;;;4.40;2.23;;;23.20;64.60;;;;;;5064843;28;20470;-80
2022/09/22 07:00:41;;;;;;;2.50;2.10;;;23.20;64.60;;;;;;5059692;28;20536;-79
2022/09/22 07:03:18;;;;;;;1.90;1.80;;;23.20;64.60;;;;;;5072790;28;20453;-80
2022/09/22 07:05:55;;;;;;;2.30;2.10;;;23.20;64.60;;;;;;5058147;28;20536;-81
2022/09/22 07:08:25;;;;;;;3.07;2.87;;;23.20;64.60;;;;;;5064012;28;20461;-81
2022/09/22 07:10:55;;;;;;;2.13;2.03;;;23.30;64.60;;;;;;5064453;28;20442;-81
2022/09/22 07:13:23;;;;;;;3.07;2.60;;;23.30;64.60;;;;;;5070866;28;20517;-79
2022/09/22 07:15:54;;;;;;;3.90;2.80;;;23.30;64.50;;;;;;5071276;28;20525;-78
2022/09/22 07:18:24;;;;;;;2.23;2.03;;;23.30;64.50;;;;;;5067741;28;20479;-79
2022/09/22 07:20:52;;;;;;;2.57;2.37;;;23.30;64.40;;;;;;5061389;28;20462;-83
2022/09/22 07:23:21;;;;;;;2.00;1.90;;;23.30;64.40;;;;;;5072870;28;20779;-82
2022/09/22 07:25:55;;;;;;;3.50;2.73;;;23.40;64.40;;;;;;5066784;28;20541;-83
2022/09/22 07:28:24;;;;;;;2.53;2.23;;;23.40;64.40;;;;;;5065000;28;20450;-76
2022/09/22 07:30:56;;;;;;;2.50;2.30;;;23.40;64.30;;;;;;5060211;28;20468;-80
2022/09/22 07:33:24;;;;;;;2.30;2.10;;;23.40;64.30;;;;;;5070159;28;20442;-80
2022/09/22 07:36:03;;;;;;;2.57;2.23;;;23.40;64.30;;;;;;5070352;28;20535;-83
2022/09/22 07:38:35;;;;;;;3.87;2.30;;;23.40;64.20;;;;;;5063472;28;20496;-78
2022/09/22 07:41:05;;;;;;;2.37;2.17;;;23.40;64.20;;;;;;5068725;28;20501;-79
2022/09/22 07:43:34;;;;;;;1.90;1.80;;;23.40;64.20;;;;;;5065644;28;20864;-80
2022/09/22 07:46:04;;;;;;;2.80;2.60;;;23.40;64.10;;;;;;5067294;28;20447;-82
2022/09/22 07:48:42;;;;;;;2.10;2.00;;;23.40;64.20;;;;;;5061088;28;20440;-82
2022/09/22 07:51:12;;;;;;;2.60;2.40;;;23.50;64.10;;;;;;5067913;28;20493;-83
2022/09/22 07:53:45;;;;;;;2.40;2.20;;;23.50;64.00;;;;;;5065594;28;20438;-81
2022/09/22 07:56:15;;;;;;;2.10;1.77;;;23.50;64.00;;;;;;5064464;28;20588;-80
2022/09/22 07:58:50;;;;;;;2.10;2.00;;;23.50;63.90;;;;;;5073344;28;20949;-84
2022/09/22 08:01:20;;;;;;;3.00;1.73;;;23.50;63.90;;;;;;5072668;28;20469;-82
2022/09/22 08:03:49;;;;;;;1.90;1.80;;;23.50;63.80;;;;;;5071699;28;20498;-81
2022/09/22 08:06:20;;;;;;;2.00;1.90;;;23.50;63.70;;;;;;5071891;28;20477;-72
2022/09/22 08:08:52;;;;;;;2.83;1.93;;;23.50;63.80;;;;;;5073130;28;20893;-71
2022/09/22 08:11:23;;;;;;;3.33;2.13;;;23.50;64.00;;;;;;5072841;28;20876;-70
2022/09/22 08:13:54;;;;;;;2.30;2.10;;;23.50;64.00;;;;;;5029271;28;20896;-71
2022/09/22 08:16:27;;;;;;;2.20;2.10;;;23.50;64.10;;;;;;5022674;28;20959;-72
2022/09/22 08:18:57;;;;;;;1.67;1.57;;;23.50;64.10;;;;;;5035722;28;20519;-71
2022/09/22 08:21:26;;;;;;;3.97;2.20;;;23.60;64.10;;;;;;5031146;28;20961;-71
2022/09/22 08:23:54;;;;;;;1.90;1.80;;;23.60;64.10;;;;;;5032310;28;20574;-70
2022/09/22 08:26:23;;;;;;;2.10;1.90;;;23.60;64.20;;;;;;5028824;28;20836;-70
2022/09/22 08:28:52;;;;;;;1.80;1.70;;;23.60;64.20;;;;;;5033748;28;20514;-72
2022/09/22 08:31:21;;;;;;;1.80;1.70;;;23.60;64.20;;;;;;5025783;28;20829;-70
2022/09/22 08:33:52;;;;;;;2.10;1.90;;;23.60;64.20;;;;;;5036867;28;20444;-70
2022/09/22 08:36:20;;;;;;;2.50;1.87;;;23.60;64.20;;;;;;5025586;28;20539;-70
2022/09/22 08:38:49;;;;;;;1.80;1.70;;;23.60;64.20;;;;;;5035378;28;20457;-71
2022/09/22 08:41:25;;;;;;;2.70;1.90;;;23.60;64.30;;;;;;5035084;28;20574;-70
2022/09/22 08:43:55;;;;;;;2.50;1.97;;;23.60;64.30;;;;;;5029363;28;20480;-70
2022/09/22 08:46:28;;;;;;;2.60;2.23;;;23.60;64.30;;;;;;5033427;28;20479;-70
2022/09/22 08:51:54;;;;;;;3.27;1.70;;;23.60;64.30;;;;;;5037222;28;20447;-71
2022/09/22 08:54:27;;;;;;;2.00;1.83;;;23.70;64.30;;;;;;5027468;28;20563;-70
2022/09/22 08:57:14;;;;;;;1.57;1.47;;;23.60;64.30;;;;;;5033083;28;20788;-70
2022/09/22 08:59:50;;;;;;;2.07;1.60;;;23.60;64.40;;;;;;5036511;28;20530;-72
2022/09/22 09:02:38;;;;;;;3.60;2.07;;;23.70;64.30;;;;;;5036758;28;20467;-71
2022/09/22 09:05:45;;;;;;;3.80;1.80;;;23.70;64.30;;;;;;5024116;28;20563;-72
2022/09/22 09:08:39;;;;;;;3.00;1.90;;;23.70;64.30;;;;;;5036017;28;20560;-71
2022/09/22 09:11:17;;;;;;;1.83;1.73;;;23.70;64.30;;;;;;5023142;28;20535;-71
2022/09/22 09:13:57;;;;;;;2.00;1.90;;;23.70;64.30;;;;;;5069178;28;20480;-75
2022/09/22 09:16:47;;;;;;;1.80;1.70;;;23.70;64.30;;;;;;5069519;28;20583;-71
2022/09/22 09:19:18;;;;;;;1.77;1.67;;;23.70;64.30;;;;;;5067927;28;20455;-72
2022/09/22 09:21:54;;;;;;;2.00;1.80;;;23.70;64.30;;;;;;5067891;28;20450;-71
2022/09/22 09:24:30;;;;;;;3.90;1.83;;;23.70;64.30;;;;;;5067577;28;20478;-71
2022/09/22 09:27:23;;;;;;;2.30;2.10;;;23.70;64.30;;;;;;5071681;28;20465;-73
2022/09/22 09:30:00;;;;;;;3.13;2.37;;;23.70;64.30;;;;;;5071988;28;20452;-72
2022/09/22 09:32:42;;;;;;;2.93;2.00;;;23.70;64.20;;;;;;5072618;28;20866;-83
2022/09/22 09:35:14;;;;;;;2.87;1.80;;;23.70;64.20;;;;;;5072813;28;20495;-81
2022/09/22 09:37:45;;;;;;;2.20;2.00;;;23.70;64.10;;;;;;5063801;28;21142;-82
2022/09/22 09:40:16;;;;;;;4.97;2.30;;;23.80;64.10;;;;;;5061756;28;21044;-82
2022/09/22 09:42:47;;;;;;;1.83;1.73;;;23.80;64.00;;;;;;5069650;28;20510;-82
2022/09/22 09:45:20;;;;;;;2.10;2.00;;;23.80;63.90;;;;;;5068182;28;20581;-81
2022/09/22 09:48:04;;;;;;;1.67;1.57;;;23.80;63.80;;;;;;5070323;28;20513;-83
2022/09/22 09:50:32;;;;;;;1.93;1.80;;;23.80;63.70;;;;;;5052288;28;21062;-82
2022/09/22 09:53:02;;;;;;;4.17;1.97;;;23.80;63.60;;;;;;5069691;28;20501;-80
2022/09/22 09:55:34;;;;;;;1.67;1.53;;;23.80;63.60;;;;;;5069456;28;20454;-82
2022/09/22 09:58:05;;;;;;;2.20;2.00;;;23.80;63.60;;;;;;5072905;28;20458;-81
2022/09/22 10:00:35;;;;;;;4.80;1.90;;;23.80;63.60;;;;;;5069283;28;20462;-81
2022/09/22 10:03:13;;;;;;;2.00;1.90;;;23.80;63.60;;;;;;5063535;28;20500;-83
2022/09/22 10:05:42;;;;;;;2.17;1.97;;;23.80;63.60;;;;;;5062287;28;20575;-82
2022/09/22 10:08:19;;;;;;;2.90;1.93;;;23.80;63.60;;;;;;5069516;28;20491;-80
2022/09/22 10:10:48;;;;;;;2.20;2.10;;;23.80;63.60;;;;;;5068372;28;20948;-81
2022/09/22 10:13:24;;;;;;;1.90;1.80;;;23.80;63.50;;;;;;5063538;28;20491;-80
2022/09/22 10:16:20;;;;;;;2.17;1.97;;;23.80;63.50;;;;;;5068433;28;20862;-81
2022/09/22 10:18:50;;;;;;;2.30;2.10;;;23.80;63.40;;;;;;5067658;28;20533;-82
2022/09/22 10:21:20;;;;;;;2.07;1.87;;;23.90;63.30;;;;;;5064657;28;20512;-82
2022/09/22 10:23:51;;;;;;;2.23;2.03;;;23.90;63.20;;;;;;5065940;28;20505;-82
2022/09/22 10:26:25;;;;;;;2.03;1.93;;;23.90;63.20;;;;;;5068373;28;20545;-82
2022/09/22 10:29:18;;;;;;;1.67;1.57;;;24.00;63.10;;;;;;5066584;28;20464;-81
2022/09/22 10:32:06;;;;;;;1.80;1.70;;;24.10;62.90;;;;;;5070663;28;20463;-82
2022/09/22 10:34:37;;;;;;;2.07;1.97;;;24.20;62.80;;;;;;5068985;28;20538;-82
2022/09/22 10:37:09;;;;;;;1.90;1.80;;;24.30;62.70;;;;;;5070039;28;20520;-79
2022/09/22 10:39:44;;;;;;;2.30;1.63;;;24.40;62.40;;;;;;5067750;28;20500;-82
2022/09/22 10:42:23;;;;;;;1.90;1.80;;;24.50;62.20;;;;;;5070101;28;20964;-82
2022/09/22 10:44:52;;;;;;;2.30;2.10;;;24.70;61.70;;;;;;5066040;28;20460;-82
2022/09/22 10:47:47;;;;;;;2.10;1.90;;;25.00;61.30;;;;;;5062169;28;20483;-81
2022/09/22 10:50:37;;;;;;;3.87;2.20;;;25.30;60.60;;;;;;5069001;28;20446;-81
2022/09/22 10:53:20;;;;;;;3.43;2.20;;;25.60;59.90;;;;;;5065811;28;20487;-79
2022/09/22 10:55:55;;;;;;;4.87;2.40;;;25.90;59.20;;;;;;5071352;28;20469;-82
2022/09/22 10:58:31;;;;;;;3.17;2.80;;;26.20;58.60;;;;;;5066289;28;20541;-78
2022/09/22 11:01:10;;;;;;;3.40;3.10;;;26.50;58.00;;;;;;5061235;28;20549;-82
2022/09/22 11:04:05;;;;;;;4.53;3.20;;;26.70;57.40;;;;;;5066181;28;21027;-80
2022/09/22 11:12:54;;;;;;;5.53;3.13;;;27.30;56.30;;;;;;5061480;28;20611;-81
2022/09/22 11:15:37;;;;;;;5.13;3.10;;;27.40;56.10;;;;;;5061526;28;20515;-80
2022/09/22 11:18:34;;;;;;;5.47;3.37;;;27.40;56.00;;;;;;5071879;28;20461;-79
2022/09/22 11:21:16;;;;;;;4.93;3.30;;;27.60;55.70;;;;;;5064494;28;20451;-72
2022/09/22 11:24:12;;;;;;;6.80;3.00;;;27.70;55.30;;;;;;5062771;28;20480;-72
2022/09/22 11:26:47;;;;;;;3.83;3.30;;;27.80;55.20;;;;;;5065113;28;20483;-73
2022/09/22 11:29:44;;;;;;;3.73;3.13;;;27.90;55.10;;;;;;5067878;28;20518;-74
2022/09/22 11:32:35;;;;;;;3.10;2.90;;;28.10;55.00;;;;;;5066207;28;20465;-73
2022/09/22 11:35:36;;;;;;;7.17;3.50;;;28.10;54.90;;;;;;5064266;28;20490;-70
2022/09/22 11:38:29;;;;;;;4.97;2.83;;;28.20;54.90;;;;;;5020552;28;20552;-70
2022/09/22 11:41:17;;;;;;;5.90;3.00;;;28.30;54.90;;;;;;5067460;28;20453;-70
2022/09/22 11:44:04;;;;;;;5.80;2.87;;;28.30;54.80;;;;;;5068814;28;20584;-70
2022/09/22 11:46:46;;;;;;;5.17;2.73;;;28.40;54.80;;;;;;5068278;28;20445;-72
2022/09/22 11:49:29;;;;;;;4.40;2.70;;;28.40;54.70;;;;;;5067380;28;20532;-71
2022/09/22 11:52:09;;;;;;;5.10;2.83;;;28.20;55.10;;;;;;5066093;28;20537;-69
2022/09/22 11:55:13;;;;;;;3.40;2.63;;;28.20;55.30;;;;;;5065392;28;20455;-70
2022/09/22 11:57:46;;;;;;;4.50;2.67;;;28.20;55.50;;;;;;5062947;28;20489;-71
2022/09/22 12:00:17;;;;;;;3.87;2.70;;;28.20;55.20;;;;;;5063979;28;20474;-69
2022/09/22 12:02:53;;;;;;;4.63;3.53;;;28.10;55.60;;;;;;5059467;28;20458;-71
2022/09/22 12:05:27;;;;;;;2.73;2.53;;;27.90;55.70;;;;;;5063360;28;20469;-72
2022/09/22 12:08:01;;;;;;;5.70;2.57;;;27.80;56.20;;;;;;5063012;28;20454;-74
2022/09/22 12:10:34;;;;;;;4.00;2.80;;;27.90;56.10;;;;;;5061947;28;20453;-73
2022/09/22 12:13:04;;;;;;;5.67;2.80;;;28.10;55.90;;;;;;5065441;28;20494;-76
2022/09/22 12:15:41;;;;;;;6.90;3.67;;;28.30;55.60;;;;;;5065899;28;20528;-70
2022/09/22 12:18:16;;;;;;;3.37;3.00;;;28.40;55.40;;;;;;5058105;28;20489;-73
2022/09/22 12:20:54;;;;;;;4.30;2.47;;;28.60;55.10;;;;;;5064395;28;20450;-72
2022/09/22 12:23:36;;;;;;;3.67;2.57;;;28.60;54.80;;;;;;5067202;28;20895;-73
2022/09/22 12:26:08;;;;;;;2.93;2.33;;;28.70;54.90;;;;;;5065886;28;20982;-74
2022/09/22 12:28:42;;;;;;;4.83;2.53;;;28.80;54.90;;;;;;5060662;28;20503;-73
2022/09/22 12:31:12;;;;;;;2.67;1.93;;;28.80;54.80;;;;;;5065986;28;20451;-74
2022/09/22 12:33:49;;;;;;;3.70;3.07;;;28.90;54.80;;;;;;5061790;28;20451;-73
2022/09/22 12:36:27;;;;;;;4.07;2.20;;;28.90;54.70;;;;;;5065967;28;20484;-75
2022/09/22 12:39:07;;;;;;;2.60;2.10;;;28.90;54.70;;;;;;5041150;28;20510;-74
2022/09/22 12:41:47;;;;;;;5.63;2.50;;;29.00;54.70;;;;;;5060044;28;20798;-73
2022/09/22 12:44:21;;;;;;;3.10;2.33;;;29.00;54.80;;;;;;5067493;28;20486;-73
2022/09/22 12:46:51;;;;;;;2.40;2.20;;;29.00;54.90;;;;;;5063798;28;20912;-73
2022/09/22 12:49:22;;;;;;;3.10;2.60;;;28.90;54.90;;;;;;5069646;28;20448;-71
2022/09/22 12:51:52;;;;;;;3.13;2.40;;;28.90;55.00;;;;;;5072103;28;20866;-73
2022/09/22 12:54:45;;;;;;;9.43;2.27;;;28.90;55.10;;;;;;5071047;28;20983;-72
2022/09/22 12:57:45;;;;;;;4.07;2.87;;;28.70;55.40;;;;;;5046100;28;20479;-71
2022/09/22 13:00:21;;;;;;;2.87;2.43;;;28.70;55.60;;;;;;5065581;28;20551;-68
2022/09/22 13:02:50;;;;;;;2.60;2.00;;;28.60;55.70;;;;;;5070807;28;20575;-71
2022/09/22 13:05:41;;;;;;;5.97;2.43;;;28.50;56.00;;;;;;5069208;28;20498;-71
2022/09/22 13:08:33;;;;;;;4.23;2.20;;;28.50;56.00;;;;;;5070170;28;20554;-75
2022/09/22 13:11:04;;;;;;;7.23;2.13;;;28.50;56.00;;;;;;5062862;28;20504;-76
2022/09/22 13:13:41;;;;;;;3.87;1.87;;;28.40;55.60;;;;;;5072486;28;20485;-72
2022/09/22 13:16:36;;;;;;;2.30;2.03;;;28.30;54.40;;;;;;5066332;28;20579;-73
2022/09/22 13:19:13;;;;;;;5.60;1.80;;;28.10;55.20;;;;;;5063505;28;20480;-72
2022/09/22 13:21:43;;;;;;;5.30;2.23;;;28.00;55.10;;;;;;5071055;28;20446;-73
2022/09/22 13:24:20;;;;;;;2.80;2.00;;;27.90;55.10;;;;;;5065386;28;20458;-75
2022/09/22 13:27:04;;;;;;;3.43;2.10;;;27.90;55.10;;;;;;5068187;28;20941;-74
2022/09/22 13:29:33;;;;;;;1.90;1.80;;;27.80;54.60;;;;;;5051203;28;20542;-75
2022/09/22 13:32:14;;;;;;;2.10;2.00;;;27.80;54.70;;;;;;5066061;28;20450;-74